Time;durP1;ratioP1;P1;durP2;ratioP2;P2;SDS_P1;SDS_P2;PMS_P1;PMS_P2;Temp;Humidity;BMP_temperature;BMP_pressure;BME280_temperature;BME280_humidity;BME280_pressure;Samples;Min_cycle;Max_cycle;Signal;HPM_P1;HPM_P2
2022/11/20 00:01:19;;;;;;;8.73;3.25;;;;;;;11.77;58.80;98548.41;5094816;28;20031;-48
2022/11/20 00:03:45;;;;;;;14.02;4.15;;;;;;;11.89;58.20;98556.47;5094788;28;20396;-48
2022/11/20 00:06:13;;;;;;;16.27;4.05;;;;;;;12.03;58.28;98562.44;5093401;28;20024;-48
2022/11/20 00:08:40;;;;;;;15.07;3.67;;;;;;;11.94;58.12;98556.66;5094379;28;20050;-48
2022/11/20 00:11:09;;;;;;;8.52;3.55;;;;;;;11.91;58.18;98559.69;5092191;28;20466;-48
2022/11/20 00:13:35;;;;;;;16.65;3.72;;;;;;;11.95;58.52;98561.69;5094603;28;20104;-49
2022/11/20 00:16:03;;;;;;;6.57;3.50;;;;;;;12.06;58.34;98565.47;5094499;28;20028;-48
2022/11/20 00:18:30;;;;;;;8.68;3.22;;;;;;;12.02;57.67;98571.38;5094503;28;20020;-48
2022/11/20 00:21:21;;;;;;;17.77;3.90;;;;;;;11.77;58.99;98574.69;5094424;28;20020;-48
2022/11/20 00:23:47;;;;;;;8.57;3.13;;;;;;;11.56;58.37;98573.19;5092935;28;20478;-49
2022/11/20 00:26:16;;;;;;;12.35;4.15;;;;;;;11.36;58.97;98570.66;5094266;28;20093;-48
2022/11/20 00:28:44;;;;;;;7.55;3.15;;;;;;;11.19;59.74;98578.19;5094235;28;20034;-48
2022/11/20 00:31:15;;;;;;;8.07;4.60;;;;;;;11.13;59.81;98574.56;5093038;28;20020;-48
2022/11/20 00:33:41;;;;;;;11.40;4.00;;;;;;;10.99;60.23;98573.78;5092922;28;20573;-48
2022/11/20 00:36:17;;;;;;;8.02;3.33;;;;;;;11.00;60.97;98577.22;5092745;28;20024;-48
2022/11/20 00:38:43;;;;;;;6.63;3.30;;;;;;;11.14;60.71;98575.38;5092926;28;20052;-48
2022/11/20 00:41:11;;;;;;;9.75;4.55;;;;;;;11.33;60.42;98571.06;5092738;28;20051;-48
2022/11/20 00:43:38;;;;;;;15.23;3.90;;;;;;;11.35;60.40;98572.47;5092699;28;20028;-48
2022/11/20 00:46:09;;;;;;;10.60;4.10;;;;;;;11.30;60.09;98571.47;5094022;28;20024;-48
2022/11/20 00:48:35;;;;;;;7.57;3.92;;;;;;;11.19;60.00;98581.63;5093986;28;20028;-48
2022/11/20 00:51:01;;;;;;;12.65;4.72;;;;;;;10.92;60.01;98574.81;5093915;28;20020;-48
2022/11/20 00:53:27;;;;;;;16.42;4.38;;;;;;;10.68;60.99;98579.69;5093826;28;20067;-48
2022/11/20 00:56:02;;;;;;;8.90;3.00;;;;;;;10.53;61.39;98579.09;5093709;28;20026;-48
2022/11/20 00:58:36;;;;;;;12.17;6.87;;;;;;;10.53;62.38;98574.66;5093819;28;20085;-48
2022/11/20 01:01:05;;;;;;;8.00;3.67;;;;;;;10.69;62.13;98568.19;5093730;28;20675;-48
2022/11/20 01:03:33;;;;;;;7.47;3.33;;;;;;;10.83;61.85;98568.19;5092319;28;20051;-48
2022/11/20 01:06:05;;;;;;;8.07;3.97;;;;;;;10.90;61.77;98569.75;5092376;28;20093;-48
2022/11/20 01:08:33;;;;;;;9.13;3.28;;;;;;;10.75;61.45;98569.19;5093772;28;20066;-48
2022/11/20 01:11:08;;;;;;;9.10;3.78;;;;;;;10.41;62.11;98572.84;5093397;28;20059;-48
2022/11/20 01:13:36;;;;;;;18.40;4.32;;;;;;;10.29;62.63;98575.25;5093527;28;20371;-48
2022/11/20 01:16:14;;;;;;;15.93;3.97;;;;;;;10.30;63.28;98575.06;5092036;28;20035;-48
2022/11/20 01:18:42;;;;;;;21.58;4.57;;;;;;;10.30;63.03;98571.63;5093416;28;20028;-48
2022/11/20 01:21:14;;;;;;;5.80;3.85;;;;;;;10.24;62.79;98572.41;5091490;28;20081;-48
2022/11/20 01:23:42;;;;;;;15.88;3.97;;;;;;;10.03;63.62;98570.78;5091728;28;20028;-48
2022/11/20 01:26:10;;;;;;;10.38;4.13;;;;;;;10.01;63.64;98576.19;5093498;28;20451;-48
2022/11/20 01:28:36;;;;;;;14.07;4.72;;;;;;;10.08;64.04;98571.78;5093105;28;20480;-48
2022/11/20 01:31:15;;;;;;;8.43;3.63;;;;;;;10.30;63.24;98584.72;5091820;28;20099;-48
2022/11/20 01:33:41;;;;;;;8.65;3.78;;;;;;;10.45;63.09;98579.31;5093113;28;20127;-48
2022/11/20 01:36:08;;;;;;;11.35;3.75;;;;;;;10.73;63.09;98581.72;5091651;28;20105;-48
2022/11/20 01:38:33;;;;;;;15.60;8.05;;;;;;;10.81;62.57;98585.97;5092966;28;20124;-48
2022/11/20 01:40:59;;;;;;;11.55;4.45;;;;;;;11.03;63.00;98587.31;5093190;28;20040;-48
2022/11/20 01:43:25;;;;;;;8.02;3.75;;;;;;;11.36;62.07;98589.84;5092901;28;20035;-48
2022/11/20 01:46:06;;;;;;;7.70;4.13;;;;;;;11.38;61.42;98594.91;5092759;28;20024;-48
2022/11/20 01:48:38;;;;;;;11.82;4.72;;;;;;;11.36;61.67;98600.34;5092843;28;20032;-48
2022/11/20 01:51:10;;;;;;;7.10;3.38;;;;;;;11.41;60.80;98591.88;5091475;28;20139;-48
2022/11/20 01:53:37;;;;;;;7.90;3.45;;;;;;;11.42;60.81;98588.22;5091404;28;20036;-48
2022/11/20 01:56:08;;;;;;;10.43;4.05;;;;;;;11.36;61.53;98600.34;5092548;28;20020;-48
2022/11/20 01:58:39;;;;;;;8.68;3.53;;;;;;;11.46;61.00;98599.91;5092622;28;20103;-48
2022/11/20 02:01:05;;;;;;;10.45;3.20;;;;;;;11.42;60.73;98605.81;5091256;28;20032;-48
2022/11/20 02:03:31;;;;;;;7.75;3.80;;;;;;;11.40;60.47;98609.44;5091184;28;20024;-48
2022/11/20 02:06:19;;;;;;;7.82;4.15;;;;;;;11.37;60.15;98604.59;5092472;28;20031;-48
2022/11/20 02:08:44;;;;;;;9.75;4.00;;;;;;;11.32;60.22;98604.41;5092485;28;20371;-48
2022/11/20 02:11:12;;;;;;;6.72;3.50;;;;;;;11.21;60.19;98597.19;5092314;28;20028;-48
2022/11/20 02:13:44;;;;;;;13.98;3.67;;;;;;;11.05;61.21;98602.88;5092379;28;20061;-48
2022/11/20 02:16:18;;;;;;;5.95;3.38;;;;;;;10.81;61.21;98597.25;5092214;28;20028;-48
2022/11/20 02:18:45;;;;;;;7.97;3.70;;;;;;;10.67;61.93;98593.84;5091034;28;20028;-48
2022/11/20 02:21:32;;;;;;;10.05;4.40;;;;;;;10.66;62.17;98591.41;5090897;28;20088;-48
2022/11/20 02:24:00;;;;;;;7.82;3.63;;;;;;;10.51;61.99;98600.28;5090664;28;20510;-48
2022/11/20 02:26:29;;;;;;;14.35;4.25;;;;;;;10.39;62.49;98604.53;5092173;28;20028;-48
2022/11/20 02:28:57;;;;;;;9.40;4.20;;;;;;;10.30;62.95;98606.56;5092078;28;20032;-48
2022/11/20 02:31:22;;;;;;;6.75;3.65;;;;;;;10.31;63.46;98602.91;5090770;28;20020;-47
2022/11/20 02:33:54;;;;;;;12.55;4.30;;;;;;;10.33;63.36;98608.75;5089951;28;20024;-48
2022/11/20 02:36:21;;;;;;;12.80;4.50;;;;;;;10.26;63.17;98610.56;5092246;28;20085;-48
2022/11/20 02:38:48;;;;;;;8.68;3.80;;;;;;;10.24;63.41;98607.31;5092014;28;20020;-48
2022/11/20 02:41:13;;;;;;;9.18;5.03;;;;;;;10.32;63.70;98608.94;5091957;28;20028;-48
2022/11/20 02:43:39;;;;;;;7.90;4.20;;;;;;;10.33;63.54;98610.59;5090638;28;20184;-48
2022/11/20 02:46:08;;;;;;;10.50;4.72;;;;;;;10.39;63.91;98610.56;5091877;28;20556;-48
2022/11/20 02:48:33;;;;;;;8.30;4.57;;;;;;;10.44;63.32;98609.97;5090591;28;20401;-48
2022/11/20 02:50:59;;;;;;;20.05;9.63;;;;;;;10.33;63.34;98603.50;5091854;28;20028;-48
2022/11/20 02:53:25;;;;;;;21.08;10.48;;;;;;;10.19;63.73;98610.53;5091866;28;20034;-48
2022/11/20 02:55:50;;;;;;;12.48;5.90;;;;;;;10.26;64.43;98601.84;5091720;28;20107;-48
2022/11/20 02:58:16;;;;;;;10.45;3.90;;;;;;;10.27;63.71;98609.53;5091796;28;20028;-48
2022/11/20 03:00:41;;;;;;;8.98;4.50;;;;;;;10.23;64.37;98608.31;5090486;28;20024;-48
2022/11/20 03:03:07;;;;;;;16.80;7.28;;;;;;;10.30;64.50;98603.09;5091766;28;20028;-48
2022/11/20 03:05:33;;;;;;;11.15;4.20;;;;;;;10.33;64.47;98611.38;5090402;28;20017;-48
2022/11/20 03:07:59;;;;;;;7.90;4.75;;;;;;;10.17;63.49;98615.16;5090398;28;20032;-48
2022/11/20 03:10:24;;;;;;;8.20;4.50;;;;;;;9.77;64.75;98617.66;5091869;28;20052;-48
2022/11/20 03:12:56;;;;;;;11.25;4.90;;;;;;;9.72;65.61;98612.22;5091729;28;20031;-48
2022/11/20 03:15:23;;;;;;;10.27;4.90;;;;;;;9.79;65.95;98628.78;5090269;28;20113;-48
2022/11/20 03:17:55;;;;;;;8.77;4.43;;;;;;;9.77;65.91;98622.91;5091584;28;20036;-48
2022/11/20 03:20:21;;;;;;;8.35;4.95;;;;;;;9.95;65.92;98619.75;5091527;28;20035;-48
2022/11/20 03:22:50;;;;;;;6.35;4.13;;;;;;;9.90;64.98;98624.78;5091582;28;20024;-48
2022/11/20 03:25:15;;;;;;;7.25;4.82;;;;;;;9.86;65.59;98617.50;5091300;28;20048;-48
2022/11/20 03:27:41;;;;;;;15.10;4.93;;;;;;;9.78;65.83;98613.25;5090231;28;20027;-48
2022/11/20 03:30:07;;;;;;;11.10;5.55;;;;;;;10.01;65.77;98615.53;5090180;28;20032;-48
2022/11/20 03:32:33;;;;;;;10.75;4.35;;;;;;;10.14;64.57;98622.59;5091505;28;20065;-48
2022/11/20 03:34:59;;;;;;;9.55;4.80;;;;;;;9.72;64.97;98620.09;5090150;28;20103;-48
2022/11/20 03:37:24;;;;;;;11.45;4.90;;;;;;;9.66;65.71;98614.81;5090076;28;20031;-48
2022/11/20 03:39:50;;;;;;;12.50;5.15;;;;;;;9.56;65.48;98615.19;5090112;28;20028;-48
2022/11/20 03:45:00;;;;;;;11.85;4.88;;;;;;;9.55;66.25;98613.56;5093861;28;20528;-48
2022/11/20 03:47:25;;;;;;;10.32;5.38;;;;;;;9.51;66.34;98617.59;5095075;28;20032;-48
2022/11/20 03:49:51;;;;;;;7.72;4.00;;;;;;;9.45;66.31;98618.34;5093759;28;20039;-48
2022/11/20 03:52:17;;;;;;;12.95;4.97;;;;;;;9.39;66.70;98625.19;5094976;28;20024;-48
2022/11/20 03:54:43;;;;;;;11.75;5.00;;;;;;;9.51;67.19;98618.38;5093620;28;20031;-48
2022/11/20 03:57:08;;;;;;;7.00;4.32;;;;;;;9.71;66.71;98621.09;5093489;28;20024;-48
2022/11/20 03:59:34;;;;;;;12.07;4.70;;;;;;;9.82;66.52;98632.00;5093574;28;20027;-48
2022/11/20 04:01:59;;;;;;;12.40;4.90;;;;;;;9.93;66.61;98624.38;5093496;28;20504;-48
2022/11/20 04:04:25;;;;;;;12.48;5.13;;;;;;;10.17;66.52;98623.03;5093494;28;20052;-48
2022/11/20 04:06:50;;;;;;;7.20;4.70;;;;;;;10.30;65.74;98618.84;5093422;28;20036;-48
2022/11/20 04:09:16;;;;;;;7.72;3.75;;;;;;;10.32;64.52;98630.75;5094690;28;20436;-48
2022/11/20 04:11:42;;;;;;;7.53;4.20;;;;;;;10.11;64.36;98634.31;5093354;28;20055;-48
2022/11/20 04:14:13;;;;;;;7.18;4.10;;;;;;;9.87;64.76;98630.41;5093277;28;20031;-48
2022/11/20 04:16:39;;;;;;;6.50;4.40;;;;;;;9.88;65.02;98632.03;5093211;28;20052;-48
2022/11/20 04:19:09;;;;;;;8.60;4.45;;;;;;;9.80;64.84;98626.97;5076322;28;20060;-48
2022/11/20 04:21:35;;;;;;;7.63;4.70;;;;;;;9.63;64.96;98626.50;5094464;28;20032;-48
2022/11/20 04:24:01;;;;;;;8.95;4.70;;;;;;;9.55;65.63;98626.66;5092951;28;20413;-49
2022/11/20 04:26:28;;;;;;;7.18;4.25;;;;;;;9.45;65.66;98628.84;5094326;28;20034;-48
2022/11/20 04:28:54;;;;;;;10.02;4.82;;;;;;;9.44;66.33;98629.81;5094364;28;20024;-48
2022/11/20 04:31:25;;;;;;;8.98;3.88;;;;;;;9.63;66.88;98630.94;5094279;28;20016;-48
2022/11/20 04:33:51;;;;;;;6.65;4.20;;;;;;;9.95;65.94;98632.06;5094263;28;20371;-48
2022/11/20 04:36:20;;;;;;;7.32;4.38;;;;;;;9.93;66.45;98636.69;5094123;28;20028;-48
2022/11/20 04:38:54;;;;;;;14.82;4.80;;;;;;;10.01;65.48;98628.63;5092995;28;20035;-48
2022/11/20 04:41:22;;;;;;;7.10;4.68;;;;;;;9.97;65.55;98636.09;5092832;28;20448;-48
2022/11/20 04:43:50;;;;;;;5.80;4.40;;;;;;;10.00;65.76;98625.22;5094030;28;20028;-47
2022/11/20 04:46:17;;;;;;;6.47;4.07;;;;;;;10.10;65.58;98630.09;5092647;28;20529;-48
2022/11/20 04:48:44;;;;;;;9.07;4.35;;;;;;;10.24;65.26;98625.69;5093960;28;20061;-49
2022/11/20 04:51:10;;;;;;;9.45;4.10;;;;;;;10.33;64.96;98628.94;5092820;28;20024;-48
2022/11/20 04:53:35;;;;;;;11.10;4.18;;;;;;;10.35;64.69;98627.72;5093846;28;20027;-48
2022/11/20 04:56:04;;;;;;;12.80;4.50;;;;;;;10.32;64.62;98624.69;5091587;28;20024;-48
2022/11/20 04:58:34;;;;;;;7.35;3.78;;;;;;;10.29;64.68;98628.50;5093806;28;20020;-48
2022/11/20 05:01:09;;;;;;;9.32;4.68;;;;;;;10.27;64.30;98635.75;5092401;28;20066;-48
2022/11/20 05:03:35;;;;;;;6.97;3.70;;;;;;;10.26;64.57;98630.69;5093638;28;20032;-48
2022/11/20 05:06:03;;;;;;;9.35;3.90;;;;;;;10.29;64.12;98632.94;5093590;28;20035;-48
2022/11/20 05:08:30;;;;;;;10.90;4.20;;;;;;;10.22;64.00;98630.28;5093598;28;20070;-48
2022/11/20 05:11:05;;;;;;;10.52;4.60;;;;;;;10.20;64.12;98641.00;5093506;28;20501;-48
2022/11/20 05:13:30;;;;;;;8.68;4.90;;;;;;;10.23;64.11;98631.13;5093515;28;20058;-48
2022/11/20 05:16:02;;;;;;;48.75;10.98;;;;;;;10.23;63.87;98634.53;5091977;28;20051;-48
2022/11/20 05:18:27;;;;;;;15.55;5.03;;;;;;;10.22;64.02;98626.88;5093679;28;20405;-48
2022/11/20 05:20:57;;;;;;;8.52;4.05;;;;;;;10.28;64.08;98628.69;5091994;28;20035;-48
2022/11/20 05:23:27;;;;;;;8.80;4.00;;;;;;;10.36;63.91;98633.78;5093524;28;20385;-48
2022/11/20 05:25:54;;;;;;;9.43;3.58;;;;;;;10.34;63.33;98628.75;5093196;28;20505;-48
2022/11/20 05:28:20;;;;;;;9.90;4.15;;;;;;;10.12;63.27;98632.50;5093195;28;20027;-48
2022/11/20 05:30:46;;;;;;;5.03;3.65;;;;;;;9.98;63.67;98637.72;5091809;28;20478;-48
2022/11/20 05:33:12;;;;;;;7.63;3.35;;;;;;;9.83;63.82;98631.00;5091787;28;20028;-48
2022/11/20 05:35:37;;;;;;;8.05;4.00;;;;;;;9.66;63.63;98628.75;5092944;28;20099;-48
2022/11/20 05:38:03;;;;;;;7.97;3.08;;;;;;;9.52;64.14;98630.50;5091716;28;20042;-49
2022/11/20 05:40:31;;;;;;;5.53;3.50;;;;;;;9.41;64.26;98633.66;5092940;28;20016;-48
2022/11/20 05:42:57;;;;;;;12.70;4.05;;;;;;;9.38;65.02;98628.81;5091607;28;20012;-48
2022/11/20 05:45:23;;;;;;;10.40;4.13;;;;;;;9.58;65.46;98624.47;5092823;28;20024;-48
2022/11/20 05:47:48;;;;;;;6.38;3.60;;;;;;;9.68;64.66;98629.34;5092775;28;20020;-48
2022/11/20 05:50:14;;;;;;;9.45;3.55;;;;;;;9.66;64.87;98631.34;5091427;28;20030;-48
2022/11/20 05:52:40;;;;;;;13.02;3.72;;;;;;;9.74;64.93;98630.38;5091404;28;20020;-48
2022/11/20 05:55:07;;;;;;;8.13;3.45;;;;;;;9.93;64.79;98637.50;5092962;28;20378;-48
2022/11/20 05:57:33;;;;;;;6.05;3.45;;;;;;;9.92;64.02;98629.81;5091286;28;20567;-48
2022/11/20 05:59:58;;;;;;;8.27;3.22;;;;;;;9.69;64.04;98633.56;5092618;28;20024;-48
2022/11/20 06:02:24;;;;;;;6.03;3.20;;;;;;;9.57;64.14;98633.31;5092535;28;20485;-48
2022/11/20 06:04:50;;;;;;;8.90;4.22;;;;;;;9.46;64.31;98635.72;5092507;28;20028;-48
2022/11/20 06:07:15;;;;;;;6.68;3.30;;;;;;;9.39;64.48;98635.66;5091071;28;20406;-48
2022/11/20 06:09:41;;;;;;;10.05;3.42;;;;;;;9.35;64.90;98639.66;5092478;28;20352;-48
2022/11/20 06:12:07;;;;;;;9.80;3.38;;;;;;;9.34;64.58;98633.63;5092934;28;20058;-48
2022/11/20 06:14:33;;;;;;;7.10;3.83;;;;;;;9.32;64.85;98640.88;5091035;28;20082;-49
2022/11/20 06:16:59;;;;;;;10.65;4.18;;;;;;;9.19;64.93;98635.53;5092256;28;20028;-48
2022/11/20 06:19:25;;;;;;;13.15;3.95;;;;;;;9.17;65.67;98645.41;5092273;28;20157;-48
2022/11/20 06:21:50;;;;;;;11.07;3.97;;;;;;;9.31;65.93;98649.72;5092288;28;20016;-48
2022/11/20 06:24:17;;;;;;;7.68;3.05;;;;;;;9.72;66.10;98641.06;5092048;28;20036;-48
2022/11/20 06:26:43;;;;;;;9.57;3.35;;;;;;;9.96;65.32;98642.34;5090868;28;20030;-48
2022/11/20 06:29:09;;;;;;;12.95;4.13;;;;;;;10.12;64.62;98646.44;5092185;28;20027;-48
2022/11/20 06:31:37;;;;;;;6.82;3.47;;;;;;;10.11;64.51;98639.56;5092193;28;20470;-48
2022/11/20 06:34:06;;;;;;;5.78;3.20;;;;;;;10.04;64.05;98638.75;5092105;28;20024;-48
2022/11/20 06:36:32;;;;;;;7.50;3.28;;;;;;;10.04;64.46;98637.91;5091965;28;20012;-48
2022/11/20 06:38:59;;;;;;;9.30;3.63;;;;;;;10.00;64.30;98633.09;5090732;28;20027;-48
2022/11/20 06:41:25;;;;;;;8.38;3.60;;;;;;;9.88;64.11;98629.41;5091981;28;20104;-48
2022/11/20 06:43:53;;;;;;;8.95;3.60;;;;;;;9.75;64.62;98639.84;5092235;28;20059;-48
2022/11/20 06:46:20;;;;;;;6.68;3.72;;;;;;;9.80;64.83;98637.47;5091931;28;20028;-48
2022/11/20 06:48:46;;;;;;;10.52;3.80;;;;;;;9.78;64.37;98640.28;5090572;28;20028;-48
2022/11/20 06:51:12;;;;;;;8.32;4.40;;;;;;;9.74;64.80;98631.19;5091825;28;20020;-48
2022/11/20 06:53:39;;;;;;;5.45;3.70;;;;;;;9.80;65.06;98633.03;5092138;28;20355;-48
2022/11/20 06:56:06;;;;;;;13.05;3.80;;;;;;;9.99;64.98;98630.66;5092037;28;20385;-48
2022/11/20 06:58:34;;;;;;;6.90;3.88;;;;;;;10.09;64.83;98636.31;5090510;28;20437;-48
2022/11/20 07:01:11;;;;;;;6.47;3.65;;;;;;;10.18;64.55;98629.06;5090465;28;20016;-48
2022/11/20 07:03:37;;;;;;;11.60;3.70;;;;;;;10.25;64.08;98629.91;5091875;28;20051;-48
2022/11/20 07:06:04;;;;;;;7.70;4.00;;;;;;;10.33;64.05;98631.56;5091735;28;20028;-48
2022/11/20 07:08:30;;;;;;;11.45;4.50;;;;;;;10.43;64.36;98641.66;5091744;28;20020;-48
2022/11/20 07:11:00;;;;;;;7.72;3.95;;;;;;;10.62;64.37;98645.31;5090367;28;20036;-48
2022/11/20 07:13:27;;;;;;;11.48;4.40;;;;;;;10.77;63.93;98651.19;5091673;28;20077;-48
2022/11/20 07:15:52;;;;;;;7.18;4.28;;;;;;;10.79;63.71;98651.78;5091820;28;20375;-48
2022/11/20 07:18:18;;;;;;;8.18;4.32;;;;;;;10.87;63.56;98648.94;5090284;28;20031;-48
2022/11/20 07:20:43;;;;;;;8.02;3.85;;;;;;;10.81;63.03;98659.47;5094143;28;20508;-48
2022/11/20 07:23:09;;;;;;;13.70;4.13;;;;;;;10.52;63.23;98650.94;5095634;28;20024;-49
2022/11/20 07:25:35;;;;;;;7.10;3.63;;;;;;;10.47;63.71;98658.63;5095363;28;20542;-49
2022/11/20 07:28:01;;;;;;;8.23;4.78;;;;;;;10.55;63.62;98656.59;5094213;28;20520;-49
2022/11/20 07:30:28;;;;;;;7.00;4.05;;;;;;;10.62;63.23;98661.06;5094161;28;20024;-48
2022/11/20 07:32:55;;;;;;;10.65;4.13;;;;;;;10.53;63.62;98653.38;5095402;28;20429;-48
2022/11/20 07:35:22;;;;;;;9.40;3.83;;;;;;;10.49;63.57;98654.78;5095335;28;20024;-48
2022/11/20 07:37:48;;;;;;;6.85;4.25;;;;;;;10.46;63.22;98657.78;5095274;28;20020;-48
2022/11/20 07:40:15;;;;;;;6.53;3.95;;;;;;;10.37;63.50;98659.81;5093995;28;20166;-48
2022/11/20 07:42:55;;;;;;;7.60;4.20;;;;;;;10.29;63.81;98661.78;5095262;28;20020;-48
2022/11/20 07:45:23;;;;;;;6.00;3.58;;;;;;;10.18;63.33;98660.53;5095160;28;20095;-48
2022/11/20 07:47:49;;;;;;;7.32;3.90;;;;;;;10.10;63.75;98663.34;5095136;28;20024;-48
2022/11/20 07:50:16;;;;;;;7.78;4.18;;;;;;;10.04;63.95;98664.97;5093725;28;20099;-48
2022/11/20 07:52:42;;;;;;;8.70;4.03;;;;;;;9.97;64.02;98661.50;5093727;28;20020;-48
2022/11/20 07:55:08;;;;;;;6.18;3.88;;;;;;;9.94;64.41;98669.75;5093701;28;20082;-48
2022/11/20 07:57:34;;;;;;;9.63;4.55;;;;;;;9.90;64.19;98668.53;5094872;28;20099;-48
2022/11/20 08:00:00;;;;;;;8.18;4.18;;;;;;;9.91;64.11;98675.41;5093578;28;20115;-48
2022/11/20 08:02:25;;;;;;;10.90;4.43;;;;;;;9.95;64.48;98681.88;5094884;28;20024;-48
2022/11/20 08:04:51;;;;;;;8.60;3.78;;;;;;;9.95;64.22;98676.63;5094819;28;20032;-48
2022/11/20 08:07:16;;;;;;;8.70;4.65;;;;;;;10.16;64.19;98681.75;5094773;28;20490;-48
2022/11/20 08:09:42;;;;;;;9.02;4.25;;;;;;;10.58;64.34;98671.97;5093419;28;20024;-48
2022/11/20 08:14:52;;;;;;;8.38;5.32;;;;;;;12.55;60.02;98666.53;5095032;28;20083;-48
2022/11/20 08:17:18;;;;;;;6.55;4.55;;;;;;;12.83;59.58;98673.22;5093119;28;20421;-48
2022/11/20 08:19:43;;;;;;;10.00;6.75;;;;;;;13.10;57.70;98665.06;5094638;28;20102;-48
2022/11/20 08:22:09;;;;;;;6.07;3.80;;;;;;;13.08;57.60;98675.03;5093409;28;20028;-48
2022/11/20 08:24:35;;;;;;;14.65;6.80;;;;;;;13.06;57.25;98670.00;5092912;28;20067;-48
2022/11/20 08:27:00;;;;;;;11.73;6.40;;;;;;;12.84;56.98;98676.66;5093107;28;20024;-48
2022/11/20 08:29:27;;;;;;;17.08;9.40;;;;;;;12.55;57.34;98687.59;5093178;28;20450;-47
2022/11/20 08:31:52;;;;;;;18.08;11.35;;;;;;;12.34;58.07;98682.69;5091777;28;20111;-48
2022/11/20 08:34:18;;;;;;;12.07;8.98;;;;;;;12.21;58.29;98694.06;5094261;28;20052;-48
2022/11/20 08:36:43;;;;;;;11.55;5.90;;;;;;;11.99;58.40;98688.31;5094152;28;20055;-48
2022/11/20 08:39:11;;;;;;;5.85;4.68;;;;;;;11.71;58.02;98688.59;5094192;28;20107;-48
2022/11/20 08:41:37;;;;;;;10.00;4.57;;;;;;;11.59;59.34;98691.06;5094154;28;20111;-48
2022/11/20 08:44:06;;;;;;;7.80;4.40;;;;;;;13.19;58.16;98682.22;5092759;28;20110;-48
2022/11/20 08:46:38;;;;;;;9.88;3.60;;;;;;;14.94;53.69;98670.06;5093992;28;20020;-48
2022/11/20 08:49:12;;;;;;;7.78;3.90;;;;;;;16.44;50.98;98676.56;5092735;28;20039;-48
2022/11/20 08:51:38;;;;;;;6.50;3.97;;;;;;;17.62;47.08;98673.84;5093930;28;20028;-46
2022/11/20 08:54:05;;;;;;;5.78;3.35;;;;;;;18.53;45.19;98667.13;5093930;28;20028;-46
2022/11/20 08:56:31;;;;;;;8.77;4.18;;;;;;;19.20;43.57;98675.66;5093745;28;20024;-46
2022/11/20 08:58:59;;;;;;;12.27;7.13;;;;;;;19.80;42.06;98681.53;5092416;28;20036;-46
2022/11/20 09:01:26;;;;;;;7.15;3.65;;;;;;;19.89;40.69;98682.66;5093648;28;20111;-46
2022/11/20 09:03:52;;;;;;;7.90;4.90;;;;;;;19.07;41.86;98690.19;5092420;28;20102;-46
2022/11/20 09:06:18;;;;;;;6.75;4.05;;;;;;;18.24;42.20;98701.94;5093645;28;20043;-46
2022/11/20 09:08:44;;;;;;;7.20;3.75;;;;;;;17.00;44.32;98701.34;5093572;28;20542;-46
2022/11/20 09:11:10;;;;;;;8.00;3.88;;;;;;;16.25;45.68;98708.53;5093436;28;20024;-46
2022/11/20 09:13:36;;;;;;;7.82;4.30;;;;;;;15.76;46.58;98718.72;5092198;28;20521;-45
2022/11/20 09:16:06;;;;;;;6.90;3.97;;;;;;;15.44;47.47;98715.63;5091987;28;20032;-46
2022/11/20 09:18:32;;;;;;;5.93;3.90;;;;;;;15.31;48.00;98724.56;5092071;28;20111;-46
2022/11/20 09:21:00;;;;;;;8.02;3.92;;;;;;;15.13;48.16;98725.47;5091970;28;20028;-46
2022/11/20 09:23:30;;;;;;;7.68;3.83;;;;;;;14.93;48.58;98718.69;5093426;28;20074;-48
2022/11/20 09:25:59;;;;;;;9.23;4.50;;;;;;;14.82;48.55;98722.09;5093330;28;20524;-46
2022/11/20 09:28:28;;;;;;;7.82;3.83;;;;;;;14.57;48.82;98723.09;5093103;28;20012;-46
2022/11/20 09:30:53;;;;;;;7.88;4.03;;;;;;;14.40;49.65;98719.44;5092148;28;20032;-46
2022/11/20 09:33:19;;;;;;;11.82;4.32;;;;;;;14.48;50.19;98721.75;5093107;28;20024;-48
2022/11/20 09:35:45;;;;;;;7.55;3.58;;;;;;;14.70;50.13;98727.34;5091665;28;20028;-48
2022/11/20 09:38:11;;;;;;;11.90;4.40;;;;;;;14.85;49.93;98734.06;5093013;28;20482;-47
2022/11/20 09:40:44;;;;;;;8.05;3.72;;;;;;;14.86;49.72;98728.53;5091621;28;20027;-48
2022/11/20 09:43:14;;;;;;;10.13;3.78;;;;;;;14.76;49.91;98733.59;5091344;28;20032;-47
2022/11/20 09:46:19;;;;;;;8.73;4.10;;;;;;;14.97;50.40;98738.34;5092846;28;20054;-48
2022/11/20 09:48:53;;;;;;;5.63;3.50;;;;;;;15.36;49.09;98737.91;5092853;28;20035;-48
2022/11/20 09:51:48;;;;;;;7.65;3.50;;;;;;;15.75;48.44;98738.25;5092844;28;20081;-48
2022/11/20 09:54:20;;;;;;;7.47;3.58;;;;;;;16.78;46.88;98733.03;5081838;28;20044;-48
2022/11/20 09:57:09;;;;;;;8.60;3.63;;;;;;;17.23;45.22;98734.88;5091230;28;20508;-48
2022/11/20 09:59:44;;;;;;;5.85;2.60;;;;;;;16.99;44.91;98741.38;5092286;28;20467;-48
2022/11/20 10:02:41;;;;;;;8.35;3.33;;;;;;;16.51;45.47;98746.88;5092506;28;20038;-48
2022/11/20 10:05:27;;;;;;;7.22;2.50;;;;;;;16.13;45.76;98752.78;5067379;28;20028;-48
2022/11/20 10:07:55;;;;;;;;;;;;;;;15.82;46.01;98754.81;5093281;28;20451;-48
2022/11/20 10:10:45;;;;;;;10.45;1.90;;;;;;;16.05;45.60;98761.09;5092438;28;19957;-48
2022/11/20 10:14:18;;;;;;;6.78;2.00;;;;;;;15.95;45.30;98754.56;5084947;28;20082;-48
2022/11/20 10:17:17;;;;;;;5.40;1.67;;;;;;;16.84;45.18;98753.34;5033133;28;20029;-48
2022/11/20 10:20:14;;;;;;;4.47;2.13;;;;;;;18.91;41.51;98747.78;5049871;28;20108;-47
2022/11/20 10:22:58;;;;;;;3.17;1.40;;;;;;;20.18;37.64;98743.47;5049887;28;20135;-46
2022/11/20 10:25:39;;;;;;;4.07;1.80;;;;;;;20.25;36.78;98744.84;5049535;28;20067;-46
2022/11/20 10:28:28;;;;;;;3.00;1.48;;;;;;;20.18;36.66;98733.63;5049797;28;20169;-46
2022/11/20 10:31:02;;;;;;;7.47;1.83;;;;;;;21.13;35.58;98730.56;5049794;28;20048;-46
2022/11/20 10:33:35;;;;;;;3.30;1.40;;;;;;;21.69;34.00;98719.00;5049697;28;20104;-46
2022/11/20 10:36:21;;;;;;;4.53;1.98;;;;;;;21.40;34.65;98715.31;5049627;28;20496;-46
2022/11/20 10:38:50;;;;;;;;;;;;;;;21.08;36.49;98713.75;5033371;28;20139;-46
2022/11/20 10:41:26;;;;;;;5.18;2.15;;;;;;;21.30;34.66;98716.13;5049556;28;19940;-46
2022/11/20 10:45:00;;;;;;;6.15;2.05;;;;;;;20.59;35.46;98715.09;5049549;28;20028;-46
2022/11/20 10:47:10;;;;;;;5.20;1.70;;;;;;;21.33;34.45;98700.38;5063028;28;20071;-46
2022/11/20 10:49:36;;;;;;;4.93;1.75;;;;;;;22.45;31.79;98697.53;5091988;28;20035;-46
2022/11/20 10:52:49;;;;;;;3.60;2.20;;;;;;;22.31;32.14;98690.13;5090811;28;20459;-46
2022/11/20 10:55:42;;;;;;;4.72;1.70;;;;;;;21.06;32.40;98689.22;5082039;28;20028;-46
2022/11/20 10:58:19;;;;;;;4.55;1.70;;;;;;;19.28;34.94;98680.47;5091886;28;20107;-46
2022/11/20 11:00:45;;;;;;;5.53;2.30;;;;;;;17.95;37.19;98677.47;5091870;28;20045;-46
2022/11/20 11:03:31;;;;;;;5.78;2.33;;;;;;;17.11;39.44;98681.13;5091805;28;20028;-46
2022/11/20 11:06:10;;;;;;;6.97;2.60;;;;;;;17.10;40.18;98676.84;5091386;28;20044;-46
2022/11/20 11:08:40;;;;;;;7.13;2.15;;;;;;;17.25;40.02;98666.47;5090509;28;20028;-46
2022/11/20 11:11:18;;;;;;;3.97;1.80;;;;;;;18.08;39.49;98660.31;5090392;28;20020;-46
2022/11/20 11:13:43;;;;;;;4.57;2.22;;;;;;;18.83;37.83;98650.63;5090512;28;20461;-46
2022/11/20 11:16:29;;;;;;;5.38;1.60;;;;;;;20.12;36.71;98642.22;5090374;28;20044;-46
2022/11/20 11:19:14;;;;;;;5.22;1.85;;;;;;;21.46;33.66;98629.59;5091215;28;20090;-46
2022/11/20 11:21:56;;;;;;;4.77;1.70;;;;;;;21.17;32.87;98629.41;5090393;28;20038;-46
2022/11/20 11:24:26;;;;;;;6.20;1.83;;;;;;;20.08;34.03;98621.69;5091514;28;20044;-46
2022/11/20 11:27:06;;;;;;;3.88;1.70;;;;;;;19.15;35.68;98623.19;5090359;28;20032;-46
2022/11/20 11:29:33;;;;;;;5.18;1.92;;;;;;;18.29;36.60;98622.28;5091610;28;20116;-46
2022/11/20 11:32:07;;;;;;;6.35;1.83;;;;;;;17.14;38.65;98625.75;5090223;28;20035;-46
2022/11/20 11:34:33;;;;;;;12.90;2.50;;;;;;;16.35;40.15;98628.47;5091543;28;20494;-46
2022/11/20 11:37:03;;;;;;;3.13;2.05;;;;;;;15.79;41.19;98622.97;5091604;28;20462;-45
2022/11/20 11:39:31;;;;;;;7.70;2.17;;;;;;;15.55;42.31;98615.09;5091716;28;20039;-46
2022/11/20 11:41:58;;;;;;;4.85;1.85;;;;;;;16.12;42.50;98602.94;5091445;28;20704;-46
2022/11/20 11:47:25;;;;;;;6.15;1.90;;;;;;;19.42;38.52;98575.16;5091426;28;20447;-46
2022/11/20 11:50:16;;;;;;;5.32;1.60;;;;;;;20.50;36.13;98578.81;5091316;28;20115;-46
2022/11/20 11:53:03;;;;;;;5.55;1.50;;;;;;;21.40;33.92;98571.16;5091339;28;20521;-46
2022/11/20 11:56:08;;;;;;;6.25;1.45;;;;;;;22.24;33.33;98560.53;5091255;28;20024;-46